Time;durP1;ratioP1;P1;durP2;ratioP2;P2;SDS_P1;SDS_P2;PMS_P1;PMS_P2;Temp;Humidity;BMP_temperature;BMP_pressure;BME280_temperature;BME280_humidity;BME280_pressure;Samples;Min_cycle;Max_cycle;Signal;HPM_P1;HPM_P2
2022/01/29 00:02:18;;;;;;;7.55;2.15;;;;;;;-0.65;78.55;101601.69;5044781;28;20052;-58
2022/01/29 00:04:45;;;;;;;5.43;1.75;;;;;;;-0.65;78.52;101599.13;5044134;28;20140;-58
2022/01/29 00:07:13;;;;;;;4.88;1.38;;;;;;;-0.66;78.37;101583.78;5047867;28;20050;-58
2022/01/29 00:09:40;;;;;;;3.85;1.50;;;;;;;-0.67;78.69;101597.31;5043750;28;20063;-58
2022/01/29 00:12:07;;;;;;;6.38;1.77;;;;;;;-0.66;78.53;101599.94;5044766;28;20045;-58
2022/01/29 00:14:34;;;;;;;4.72;1.73;;;;;;;-0.67;78.63;101593.09;5047412;28;20409;-58
2022/01/29 00:17:00;;;;;;;6.93;2.20;;;;;;;-0.67;78.68;101598.19;5048505;28;20401;-58
2022/01/29 00:19:26;;;;;;;8.15;2.00;;;;;;;-0.67;78.74;101598.19;5045500;28;20044;-58
2022/01/29 00:21:53;;;;;;;4.82;1.85;;;;;;;-0.69;78.92;101599.78;5044879;28;20049;-59
2022/01/29 00:24:21;;;;;;;7.65;2.10;;;;;;;-0.71;78.76;101598.81;5048890;28;20048;-57
2022/01/29 00:26:47;;;;;;;8.77;2.00;;;;;;;-0.75;78.98;101599.47;5047286;28;20492;-58
2022/01/29 00:29:19;;;;;;;5.47;1.67;;;;;;;-0.77;79.13;101598.50;5047891;28;20417;-58
2022/01/29 00:31:45;;;;;;;5.90;1.40;;;;;;;-0.77;79.56;101595.97;5043852;28;20052;-58
2022/01/29 00:34:12;;;;;;;5.97;2.00;;;;;;;-0.76;79.60;101602.81;5045530;28;20045;-58
2022/01/29 00:36:38;;;;;;;6.50;2.10;;;;;;;-0.77;79.33;101595.97;5046674;28;20052;-58
2022/01/29 00:39:05;;;;;;;6.55;1.98;;;;;;;-0.76;79.68;101594.28;5048281;28;20056;-58
2022/01/29 00:41:33;;;;;;;5.63;1.77;;;;;;;-0.73;79.93;101597.88;5044696;28;20045;-59
2022/01/29 00:43:59;;;;;;;7.20;1.98;;;;;;;-0.74;79.78;101596.13;5043998;28;20064;-59
2022/01/29 00:46:26;;;;;;;12.25;2.17;;;;;;;-0.71;79.95;101591.19;5048726;28;20056;-58
2022/01/29 00:48:52;;;;;;;9.68;2.00;;;;;;;-0.67;79.64;101577.81;5044798;28;20423;-58
2022/01/29 00:51:19;;;;;;;9.27;2.35;;;;;;;-0.65;80.00;101576.22;5046900;28;20473;-58
2022/01/29 00:53:45;;;;;;;7.20;2.00;;;;;;;-0.62;79.89;101575.50;5046094;28;20068;-58
2022/01/29 00:56:11;;;;;;;6.78;2.13;;;;;;;-0.58;79.77;101576.50;5045965;28;20052;-58
2022/01/29 00:58:40;;;;;;;8.23;2.58;;;;;;;-0.55;79.56;101571.56;5045923;28;20052;-58
2022/01/29 01:01:07;;;;;;;8.32;2.70;;;;;;;-0.53;79.46;101575.06;5043966;28;20045;-57
2022/01/29 01:03:33;;;;;;;8.68;2.58;;;;;;;-0.52;79.68;101571.72;5042834;28;20426;-59
2022/01/29 01:06:00;;;;;;;7.93;2.40;;;;;;;-0.51;79.58;101573.50;5047398;28;20060;-59
2022/01/29 01:08:26;;;;;;;5.82;1.77;;;;;;;-0.51;79.78;101564.19;5044263;28;20052;-59
2022/01/29 01:10:52;;;;;;;7.50;2.17;;;;;;;-0.48;79.53;101560.91;5043037;28;20071;-58
2022/01/29 01:13:19;;;;;;;6.03;1.75;;;;;;;-0.47;79.75;101557.56;5044560;28;20054;-59
2022/01/29 01:15:47;;;;;;;7.20;2.05;;;;;;;-0.46;79.46;101556.78;5045766;28;20052;-58
2022/01/29 01:18:13;;;;;;;6.53;1.67;;;;;;;-0.44;79.38;101550.09;5043724;28;20052;-59
2022/01/29 01:20:39;;;;;;;7.57;2.17;;;;;;;-0.44;79.75;101540.78;5046623;28;20056;-59
2022/01/29 01:23:06;;;;;;;4.13;1.88;;;;;;;-0.42;79.63;101548.47;5046376;28;20068;-58
2022/01/29 01:25:32;;;;;;;5.68;1.77;;;;;;;-0.40;79.50;101537.56;5043883;28;20496;-58
2022/01/29 01:27:59;;;;;;;7.43;2.25;;;;;;;-0.40;79.56;101527.38;5044876;28;20462;-58
2022/01/29 01:30:25;;;;;;;7.38;2.10;;;;;;;-0.36;79.77;101515.66;5043847;28;20060;-58
2022/01/29 01:32:53;;;;;;;6.93;1.83;;;;;;;-0.34;79.92;101508.97;5045530;28;20458;-58
2022/01/29 01:35:24;;;;;;;8.25;1.85;;;;;;;-0.34;79.66;101507.28;5043836;28;20049;-58
2022/01/29 01:37:55;;;;;;;6.13;1.70;;;;;;;-0.30;79.78;101505.75;5043444;28;20060;-58
2022/01/29 01:40:22;;;;;;;7.82;1.60;;;;;;;-0.28;79.93;101496.50;5047441;28;20064;-57
2022/01/29 01:42:49;;;;;;;6.55;1.73;;;;;;;-0.26;79.76;101494.91;5046158;28;20048;-57
2022/01/29 01:45:15;;;;;;;4.07;1.60;;;;;;;-0.22;79.81;101496.81;5046218;28;20061;-57
2022/01/29 01:47:42;;;;;;;3.33;1.48;;;;;;;-0.21;79.78;101490.91;5044460;28;20064;-58
2022/01/29 01:50:11;;;;;;;6.57;2.00;;;;;;;-0.19;79.75;101481.66;5043600;28;20037;-58
2022/01/29 01:52:38;;;;;;;5.30;1.80;;;;;;;-0.18;79.75;101473.22;5045875;28;20048;-58
2022/01/29 01:55:05;;;;;;;7.63;2.20;;;;;;;-0.18;79.70;101462.13;5045632;28;20051;-58
2022/01/29 01:57:32;;;;;;;4.90;1.77;;;;;;;-0.18;79.83;101452.81;5044038;28;20053;-58
2022/01/29 01:59:58;;;;;;;8.25;2.20;;;;;;;-0.18;79.85;101445.19;5041866;28;20055;-58
2022/01/29 02:02:25;;;;;;;9.23;2.40;;;;;;;-0.16;80.02;101441.03;5046069;28;20520;-58
2022/01/29 02:04:51;;;;;;;8.52;2.90;;;;;;;-0.15;79.88;101442.78;5044169;28;20052;-58
2022/01/29 02:07:19;;;;;;;7.95;2.40;;;;;;;-0.13;79.86;101425.88;5043503;28;20056;-57
2022/01/29 02:09:46;;;;;;;8.38;2.63;;;;;;;-0.11;79.71;101424.25;5040458;28;20472;-57
2022/01/29 02:12:13;;;;;;;11.98;3.92;;;;;;;-0.09;79.58;101417.56;5046133;28;20033;-58
2022/01/29 02:14:40;;;;;;;9.05;3.10;;;;;;;-0.07;79.82;101410.84;5045564;28;20068;-58
2022/01/29 02:17:09;;;;;;;7.00;2.83;;;;;;;-0.03;79.87;101412.75;5042515;28;20493;-58
2022/01/29 02:19:36;;;;;;;3.65;1.50;;;;;;;0.02;79.62;101404.47;5041736;28;20144;-58
2022/01/29 02:22:04;;;;;;;9.15;4.10;;;;;;;0.05;79.68;101414.78;5045154;28;20052;-58
2022/01/29 02:24:31;;;;;;;7.53;3.80;;;;;;;0.07;79.44;101408.09;5044164;28;20070;-58
2022/01/29 02:26:58;;;;;;;10.15;4.55;;;;;;;0.10;79.15;101413.31;5042555;28;20363;-58
2022/01/29 02:29:24;;;;;;;10.02;4.35;;;;;;;0.10;78.84;101409.09;5043024;28;20151;-58
2022/01/29 02:31:53;;;;;;;4.95;2.22;;;;;;;0.13;79.35;101416.88;5045917;28;20501;-58
2022/01/29 02:34:19;;;;;;;9.48;3.08;;;;;;;0.15;79.16;101422.03;5043319;28;20037;-58
2022/01/29 02:36:46;;;;;;;4.18;2.00;;;;;;;0.18;78.90;101406.88;5042052;28;20059;-58
2022/01/29 02:39:16;;;;;;;4.65;1.73;;;;;;;0.19;78.19;101417.16;5046196;28;20059;-58
2022/01/29 02:41:44;;;;;;;9.15;1.90;;;;;;;0.22;77.84;101407.06;5045389;28;20052;-58
2022/01/29 02:44:14;;;;;;;4.70;1.83;;;;;;;0.24;77.54;101400.38;5044309;28;20065;-58
2022/01/29 02:49:26;;;;;;;5.88;2.65;;;;;;;0.30;76.82;101390.44;5041920;28;20059;-57
2022/01/29 02:51:55;;;;;;;8.27;5.30;;;;;;;0.34;77.07;101383.78;5044210;28;20398;-58
2022/01/29 02:54:25;;;;;;;31.48;18.48;;;;;;;0.36;76.64;101384.72;5044392;28;20056;-58
2022/01/29 02:56:51;;;;;;;7.28;3.30;;;;;;;0.40;76.97;101389.16;5041511;28;20167;-58
2022/01/29 02:59:18;;;;;;;11.55;6.35;;;;;;;0.41;76.88;101385.78;5045846;28;20045;-58
2022/01/29 03:01:44;;;;;;;9.63;3.03;;;;;;;0.41;76.93;101388.34;5043884;28;20060;-58
2022/01/29 03:04:11;;;;;;;6.60;2.17;;;;;;;0.41;76.85;101387.47;5044999;28;20126;-57
2022/01/29 03:06:37;;;;;;;6.75;2.00;;;;;;;0.41;76.82;101375.59;5042346;28;20060;-57
2022/01/29 03:09:05;;;;;;;7.55;1.23;;;;;;;0.43;77.04;101388.41;5041569;28;20099;-57
2022/01/29 03:11:34;;;;;;;9.43;3.67;;;;;;;0.45;77.00;101387.66;5044675;28;20053;-58
2022/01/29 03:14:00;;;;;;;6.88;1.65;;;;;;;0.48;77.08;101392.88;5044760;28;20037;-58
2022/01/29 03:16:26;;;;;;;13.50;7.20;;;;;;;0.46;77.27;101374.09;5043331;28;20075;-59
2022/01/29 03:18:53;;;;;;;22.25;11.18;;;;;;;0.48;77.04;101375.03;5047505;28;20379;-59
2022/01/29 03:21:19;;;;;;;21.40;9.90;;;;;;;0.50;76.74;101365.75;5049265;28;20063;-58
2022/01/29 03:23:46;;;;;;;23.90;11.43;;;;;;;0.50;76.58;101360.66;5046954;28;20052;-58
2022/01/29 03:26:12;;;;;;;23.55;11.10;;;;;;;0.51;76.87;101357.31;5046294;28;20159;-58
2022/01/29 03:28:40;;;;;;;13.82;7.35;;;;;;;0.51;76.63;101347.09;5046746;28;20053;-58
2022/01/29 03:31:06;;;;;;;19.38;8.48;;;;;;;0.52;76.43;101356.53;5049615;28;20052;-58
2022/01/29 03:33:33;;;;;;;9.60;4.35;;;;;;;0.52;76.10;101348.88;5045752;28;20048;-58
2022/01/29 03:35:59;;;;;;;15.25;5.95;;;;;;;0.52;76.44;101348.88;5046720;28;20374;-58
2022/01/29 03:38:26;;;;;;;5.90;2.55;;;;;;;0.53;76.31;101339.53;5047950;28;20052;-58
2022/01/29 03:40:55;;;;;;;3.33;1.63;;;;;;;0.52;75.67;101341.22;5048018;28;20056;-58
2022/01/29 03:43:28;;;;;;;1.52;0.70;;;;;;;0.53;75.72;101325.13;5046784;28;20441;-58
2022/01/29 03:45:56;;;;;;;10.80;4.00;;;;;;;0.51;75.51;101326.69;5047105;28;20056;-57
2022/01/29 03:48:22;;;;;;;5.13;2.00;;;;;;;0.50;75.75;101314.75;5046968;28;20045;-58
2022/01/29 03:50:49;;;;;;;4.65;1.65;;;;;;;0.49;75.69;101304.47;5048250;28;20053;-58
2022/01/29 03:53:15;;;;;;;2.90;0.80;;;;;;;0.47;75.84;101299.31;5047802;28;20053;-58
2022/01/29 03:55:42;;;;;;;4.30;1.00;;;;;;;0.44;75.98;101299.19;5042857;28;20068;-58
2022/01/29 03:58:08;;;;;;;5.60;2.10;;;;;;;0.43;76.02;101301.69;5044290;28;20048;-57
2022/01/29 04:00:35;;;;;;;3.08;0.90;;;;;;;0.41;76.26;101304.16;5047767;28;20049;-58
2022/01/29 04:03:02;;;;;;;4.10;1.30;;;;;;;0.40;76.59;101292.22;5047661;28;20060;-57
2022/01/29 04:05:29;;;;;;;4.13;1.05;;;;;;;0.39;76.49;101280.28;5043652;28;20056;-58
2022/01/29 04:07:55;;;;;;;3.92;1.20;;;;;;;0.37;76.73;101271.69;5045467;28;20096;-59
2022/01/29 04:10:23;;;;;;;5.50;1.23;;;;;;;0.35;77.03;101260.56;5047938;28;20052;-58
2022/01/29 04:12:52;;;;;;;4.38;0.95;;;;;;;0.36;77.33;101253.78;5047910;28;20404;-58
2022/01/29 04:15:18;;;;;;;3.40;0.98;;;;;;;0.34;77.27;101245.19;5044160;28;20045;-58
2022/01/29 04:17:45;;;;;;;5.10;1.40;;;;;;;0.30;77.76;101239.97;5045725;28;21253;-58
2022/01/29 04:20:13;;;;;;;5.57;1.70;;;;;;;0.28;78.11;101235.63;5047177;28;20467;-58
2022/01/29 04:22:39;;;;;;;51.05;20.95;;;;;;;0.25;78.53;101228.72;5047226;28;20359;-58
2022/01/29 04:25:07;;;;;;;9.40;2.63;;;;;;;0.22;78.85;101230.28;5044636;28;20485;-58
2022/01/29 04:27:37;;;;;;;5.18;1.85;;;;;;;0.17;79.18;101227.53;5042587;28;20541;-57
2022/01/29 04:30:09;;;;;;;9.50;2.47;;;;;;;0.16;79.46;101219.81;5047517;28;20052;-58
2022/01/29 04:32:57;;;;;;;5.82;1.88;;;;;;;0.12;79.84;101212.84;5045517;28;20685;-58
2022/01/29 04:35:25;;;;;;;7.22;2.15;;;;;;;0.10;80.19;101194.06;5044711;28;20053;-58
2022/01/29 04:37:51;;;;;;;8.35;2.17;;;;;;;0.09;80.46;101192.34;5043860;28;20061;-57
2022/01/29 04:40:18;;;;;;;8.93;2.50;;;;;;;0.07;80.62;101186.31;5047876;28;20048;-58
2022/01/29 04:42:45;;;;;;;11.82;3.63;;;;;;;0.04;81.08;101186.19;5046651;28;20045;-58
2022/01/29 04:45:11;;;;;;;9.65;3.28;;;;;;;0.01;81.50;101188.59;5044245;28;20045;-58
2022/01/29 04:47:38;;;;;;;41.47;17.35;;;;;;;-0.02;82.04;101190.19;5044178;28;20053;-58
2022/01/29 04:50:05;;;;;;;14.73;4.07;;;;;;;-0.03;81.98;101192.66;5047783;28;20489;-57
2022/01/29 04:52:33;;;;;;;110.57;43.85;;;;;;;-0.03;81.96;101191.00;5046499;28;20052;-59
2022/01/29 04:54:59;;;;;;;10.40;3.33;;;;;;;-0.03;82.30;101198.66;5040962;28;20037;-58
2022/01/29 04:57:26;;;;;;;12.77;3.35;;;;;;;-0.01;82.51;101193.59;5046296;28;20409;-58
2022/01/29 04:59:52;;;;;;;12.20;3.05;;;;;;;-0.02;82.93;101184.22;5046548;28;20044;-58
2022/01/29 05:02:19;;;;;;;14.35;5.20;;;;;;;-0.01;83.02;101178.31;5044542;28;20053;-58
2022/01/29 05:04:45;;;;;;;10.18;3.72;;;;;;;-0.02;83.44;101169.78;5042357;28;20057;-58
2022/01/29 05:07:12;;;;;;;15.98;5.75;;;;;;;0.01;83.29;101163.13;5048848;28;20390;-58
2022/01/29 05:09:39;;;;;;;31.02;13.07;;;;;;;0.02;83.54;101160.63;5045901;28;20493;-58
2022/01/29 05:12:07;;;;;;;24.30;10.35;;;;;;;0.02;83.54;101159.75;5044657;28;20048;-58
2022/01/29 05:14:40;;;;;;;25.38;12.50;;;;;;;0.04;83.47;101166.66;5046140;28;20186;-58
2022/01/29 05:26:49;;;;;;;12.63;4.40;;;;;;;0.06;83.16;101159.06;5046548;28;20151;-58
2022/01/29 05:28:18;;;;;;;21.15;7.78;;;;;;;0.08;83.87;101139.63;5043490;28;20118;-58
2022/01/29 05:30:45;;;;;;;11.13;3.33;;;;;;;0.08;83.86;101135.38;5046653;28;20056;-57
2022/01/29 05:33:11;;;;;;;18.30;6.18;;;;;;;0.08;84.06;101119.22;5043679;28;20044;-58
2022/01/29 05:35:38;;;;;;;7.95;2.80;;;;;;;0.09;83.97;101126.94;5046036;28;20531;-58
2022/01/29 05:38:04;;;;;;;10.32;3.63;;;;;;;0.10;84.16;101123.56;5044426;28;20052;-58
2022/01/29 05:40:31;;;;;;;19.55;7.95;;;;;;;0.11;83.91;101119.34;5045183;28;20045;-58
2022/01/29 05:42:58;;;;;;;11.50;4.88;;;;;;;0.11;84.18;101109.16;5046161;28;20072;-59
2022/01/29 05:45:25;;;;;;;17.05;6.18;;;;;;;0.09;84.43;101100.56;5044060;28;20049;-59
2022/01/29 05:47:51;;;;;;;17.73;6.55;;;;;;;0.08;85.34;101091.19;5045832;28;20111;-57
2022/01/29 05:50:18;;;;;;;17.17;6.30;;;;;;;0.07;85.41;101086.91;5044920;28;20437;-58
2022/01/29 05:52:44;;;;;;;17.92;7.80;;;;;;;0.05;85.91;101083.41;5046670;28;20281;-58
2022/01/29 05:55:11;;;;;;;14.88;5.03;;;;;;;0.08;86.00;101081.00;5043181;28;20037;-58
2022/01/29 05:57:37;;;;;;;28.40;7.80;;;;;;;0.08;86.58;101068.25;5043940;28;20057;-58
2022/01/29 06:00:07;;;;;;;16.85;4.55;;;;;;;0.10;86.95;101066.63;5045914;28;20057;-59
2022/01/29 06:02:33;;;;;;;25.77;6.28;;;;;;;0.13;86.79;101069.28;5045923;28;20052;-58
2022/01/29 06:04:59;;;;;;;19.20;7.65;;;;;;;0.15;86.87;101060.88;5041349;28;20041;-58
2022/01/29 06:07:26;;;;;;;16.88;5.97;;;;;;;0.18;87.10;101055.03;5042728;28;20474;-58
2022/01/29 06:09:52;;;;;;;16.63;6.65;;;;;;;0.19;86.87;101060.19;5046114;28;20053;-58
2022/01/29 06:12:19;;;;;;;17.25;6.70;;;;;;;0.20;87.06;101064.47;5042771;28;20056;-58
2022/01/29 06:14:45;;;;;;;21.45;7.20;;;;;;;0.23;87.27;101058.63;5042364;28;20056;-58
2022/01/29 06:17:13;;;;;;;21.38;6.40;;;;;;;0.27;87.04;101060.47;5043736;28;20064;-58
2022/01/29 06:19:39;;;;;;;21.15;6.75;;;;;;;0.26;87.12;101056.19;5046135;28;20074;-58
2022/01/29 06:22:10;;;;;;;13.50;5.20;;;;;;;0.30;86.89;101050.41;5042812;28;20041;-58
2022/01/29 06:24:36;;;;;;;15.32;4.93;;;;;;;0.31;86.92;101052.13;5041218;28;20145;-57
2022/01/29 06:27:03;;;;;;;12.98;5.32;;;;;;;0.35;86.67;101048.03;5043361;28;20125;-58
2022/01/29 06:29:29;;;;;;;14.88;3.78;;;;;;;0.35;86.84;101043.78;5046520;28;20505;-57
2022/01/29 06:31:56;;;;;;;18.92;5.47;;;;;;;0.38;86.72;101043.91;5044672;28;20061;-57
2022/01/29 06:34:24;;;;;;;16.00;5.60;;;;;;;0.39;86.55;101039.66;5041934;28;20052;-58
2022/01/29 06:36:50;;;;;;;15.80;4.40;;;;;;;0.41;86.69;101023.63;5043105;28;20048;-57
2022/01/29 06:39:16;;;;;;;16.35;4.65;;;;;;;0.42;86.65;101024.47;5044116;28;20064;-56
2022/01/29 06:41:43;;;;;;;16.75;5.22;;;;;;;0.43;86.51;101022.00;5043108;28;20052;-59
2022/01/29 06:44:09;;;;;;;13.18;4.00;;;;;;;0.45;86.36;101007.63;5042718;28;20045;-59
2022/01/29 06:46:37;;;;;;;18.80;5.28;;;;;;;0.46;86.68;100999.16;5045290;28;20574;-58
2022/01/29 06:49:03;;;;;;;17.90;5.95;;;;;;;0.48;86.55;100989.00;5042719;28;20049;-57
2022/01/29 06:51:31;;;;;;;18.05;5.38;;;;;;;0.49;86.62;100981.41;5042675;28;20048;-58
2022/01/29 06:53:58;;;;;;;18.27;5.82;;;;;;;0.51;86.48;100973.81;5041785;28;20049;-57
2022/01/29 06:56:24;;;;;;;19.67;6.13;;;;;;;0.51;86.74;100969.56;5041969;28;20114;-58
2022/01/29 06:58:51;;;;;;;16.95;4.97;;;;;;;0.53;86.39;100972.22;5045557;28;20057;-58
2022/01/29 07:01:17;;;;;;;18.48;4.97;;;;;;;0.52;87.00;100968.78;5044979;28;20083;-57
2022/01/29 07:03:43;;;;;;;14.23;4.45;;;;;;;0.53;86.56;100967.97;5037156;28;20060;-58
2022/01/29 07:06:10;;;;;;;18.65;6.10;;;;;;;0.57;86.82;100962.16;5039960;28;20114;-59
2022/01/29 07:08:39;;;;;;;15.40;6.65;;;;;;;0.58;86.70;100958.81;5040041;28;20067;-58
2022/01/29 07:11:05;;;;;;;10.98;4.90;;;;;;;0.60;86.42;100954.63;5044470;28;20053;-57
2022/01/29 07:13:32;;;;;;;16.98;5.53;;;;;;;0.65;86.52;100956.47;5040970;28;20096;-57
2022/01/29 07:15:58;;;;;;;12.52;4.40;;;;;;;0.66;86.66;100958.19;5037973;28;20410;-58
2022/01/29 07:18:25;;;;;;;17.45;5.18;;;;;;;0.69;86.50;100943.00;5044485;28;20049;-58
2022/01/29 07:20:51;;;;;;;15.60;5.07;;;;;;;0.72;86.69;100930.34;5041389;28;20045;-58
2022/01/29 07:23:17;;;;;;;14.40;4.93;;;;;;;0.75;86.36;100920.25;5039559;28;20048;-58
2022/01/29 07:25:45;;;;;;;14.40;4.93;;;;;;;0.75;86.08;100927.91;5044317;28;20072;-57
2022/01/29 07:28:12;;;;;;;19.50;5.63;;;;;;;0.76;86.10;100915.19;5042814;28;20408;-58
2022/01/29 07:30:38;;;;;;;12.95;4.38;;;;;;;0.78;85.83;100907.59;5042925;28;20473;-58
2022/01/29 07:33:05;;;;;;;15.85;4.55;;;;;;;0.76;85.80;100899.00;5042120;28;20049;-58
2022/01/29 07:35:31;;;;;;;17.17;5.13;;;;;;;0.80;85.79;100900.84;5044412;28;20049;-57
2022/01/29 07:37:57;;;;;;;10.23;4.40;;;;;;;0.79;85.72;100891.47;5039136;28;20052;-57
2022/01/29 07:40:24;;;;;;;20.40;5.10;;;;;;;0.79;85.49;100882.13;5037430;28;20076;-57
2022/01/29 07:42:52;;;;;;;16.83;4.70;;;;;;;0.79;85.49;100878.69;5039442;28;20068;-59
2022/01/29 07:45:18;;;;;;;12.48;5.25;;;;;;;0.76;85.95;100878.59;5039968;28;20501;-58
2022/01/29 07:47:45;;;;;;;14.60;5.22;;;;;;;0.77;85.90;100862.47;5040925;28;20049;-58
2022/01/29 07:50:11;;;;;;;20.13;5.85;;;;;;;0.77;86.03;100859.91;5039096;28;20057;-58
2022/01/29 07:52:38;;;;;;;13.98;4.95;;;;;;;0.78;86.29;100856.53;5040481;28;20057;-58
2022/01/29 07:55:05;;;;;;;16.75;5.15;;;;;;;0.79;86.43;100865.94;5041978;28;20056;-58
2022/01/29 07:57:32;;;;;;;16.77;4.70;;;;;;;0.80;86.27;100847.25;5037894;28;20076;-58
2022/01/29 08:00:00;;;;;;;15.70;5.35;;;;;;;0.83;86.35;100844.81;5036437;28;20045;-59
2022/01/29 08:02:28;;;;;;;18.67;4.72;;;;;;;0.85;86.34;100838.06;5038234;28;20063;-59
2022/01/29 08:04:55;;;;;;;12.80;4.88;;;;;;;0.88;86.14;100822.84;5044136;28;21774;-59
2022/01/29 08:07:21;;;;;;;11.63;4.55;;;;;;;0.88;85.74;100807.53;5042728;28;20433;-58
2022/01/29 08:09:48;;;;;;;14.50;4.80;;;;;;;0.93;86.12;100795.78;5045423;28;20048;-58
2022/01/29 08:12:14;;;;;;;17.73;4.90;;;;;;;0.95;86.25;100792.47;5045162;28;20056;-57
2022/01/29 08:14:41;;;;;;;14.27;4.55;;;;;;;1.00;86.16;100787.50;5044983;28;20053;-60
2022/01/29 08:17:08;;;;;;;15.77;4.32;;;;;;;1.00;86.15;100787.50;5042987;28;20049;-59
2022/01/29 08:19:35;;;;;;;12.80;4.70;;;;;;;1.06;85.90;100771.53;5039904;28;20130;-57
2022/01/29 08:22:01;;;;;;;10.98;4.38;;;;;;;1.08;86.30;100765.66;5044460;28;20049;-59
2022/01/29 08:24:28;;;;;;;10.05;4.00;;;;;;;1.09;86.21;100756.31;5043681;28;20060;-57
2022/01/29 08:26:54;;;;;;;16.92;4.30;;;;;;;1.13;86.13;100748.78;5041847;28;20049;-59
2022/01/29 08:29:21;;;;;;;11.13;4.82;;;;;;;1.17;86.23;100745.50;5044493;28;20049;-59
2022/01/29 08:31:56;;;;;;;13.32;4.03;;;;;;;1.20;85.64;100745.59;5044022;28;20481;-60
2022/01/29 08:34:24;;;;;;;8.32;3.47;;;;;;;1.23;86.01;100748.22;5043129;28;20135;-59
2022/01/29 08:36:54;;;;;;;9.60;3.30;;;;;;;1.23;85.94;100749.91;5043520;28;20531;-59
2022/01/29 08:39:20;;;;;;;7.90;3.70;;;;;;;1.28;85.91;100743.25;5041419;28;20049;-57
2022/01/29 08:41:47;;;;;;;9.07;4.15;;;;;;;1.26;85.90;100737.25;5043354;28;20049;-58
2022/01/29 08:44:13;;;;;;;13.77;3.33;;;;;;;1.29;85.51;100722.00;5045936;28;20048;-59
2022/01/29 08:46:40;;;;;;;10.20;4.10;;;;;;;1.28;85.23;100725.38;5045754;28;20059;-58
2022/01/29 08:49:06;;;;;;;11.85;4.45;;;;;;;1.27;85.19;100723.66;5042616;28;20063;-58
2022/01/29 08:51:34;;;;;;;6.93;3.20;;;;;;;1.26;85.27;100719.38;5045401;28;20054;-58
2022/01/29 08:54:01;;;;;;;8.82;3.78;;;;;;;1.24;85.60;100719.31;5045407;28;20477;-58
2022/01/29 08:56:28;;;;;;;8.20;3.88;;;;;;;1.26;85.25;100704.91;5045871;28;20084;-59
2022/01/29 08:58:54;;;;;;;13.85;4.25;;;;;;;1.25;85.34;100710.84;5042092;28;20057;-59
2022/01/29 09:01:21;;;;;;;11.73;4.38;;;;;;;1.23;85.59;100704.81;5045065;28;20082;-59
2022/01/29 09:03:47;;;;;;;7.90;3.88;;;;;;;1.22;85.46;100692.88;5045917;28;20044;-59
2022/01/29 09:06:14;;;;;;;11.95;4.70;;;;;;;1.23;85.82;100679.28;5043314;28;20052;-59
2022/01/29 09:08:46;;;;;;;6.72;4.00;;;;;;;1.21;85.65;100686.03;5042075;28;20064;-58
2022/01/29 09:11:12;;;;;;;8.38;4.40;;;;;;;1.23;85.89;100661.41;5038620;28;20504;-56
2022/01/29 09:13:39;;;;;;;10.18;4.53;;;;;;;1.25;85.73;100667.41;5045159;28;20047;-59
2022/01/29 09:16:05;;;;;;;14.50;6.25;;;;;;;1.21;86.71;100652.84;5042709;28;20055;-58
2022/01/29 09:18:35;;;;;;;9.88;4.32;;;;;;;1.21;86.67;100645.19;5042598;28;20059;-59
2022/01/29 09:21:02;;;;;;;8.60;4.47;;;;;;;1.21;87.26;100642.63;5043859;28;20099;-57
2022/01/29 09:23:31;;;;;;;10.90;4.82;;;;;;;1.22;87.72;100644.34;5043473;28;20089;-57
2022/01/29 09:26:01;;;;;;;8.95;5.07;;;;;;;1.21;87.82;100641.75;5041952;28;20048;-59
2022/01/29 09:28:27;;;;;;;8.98;4.47;;;;;;;1.18;87.88;100645.09;5041083;28;20053;-58
2022/01/29 09:30:54;;;;;;;9.23;5.25;;;;;;;1.19;88.02;100631.50;5041970;28;20374;-58
2022/01/29 09:33:20;;;;;;;11.93;5.70;;;;;;;1.22;87.89;100623.94;5039777;28;20057;-58
2022/01/29 09:35:47;;;;;;;11.10;5.18;;;;;;;1.20;88.24;100623.03;5039176;28;20499;-57
2022/01/29 09:38:14;;;;;;;9.75;4.88;;;;;;;1.21;87.93;100609.44;5041121;28;20052;-57
2022/01/29 09:40:43;;;;;;;12.23;5.35;;;;;;;1.23;88.01;100591.59;5044159;28;20049;-58
2022/01/29 09:43:14;;;;;;;8.90;4.63;;;;;;;1.21;87.99;100588.13;5039239;28;20409;-57
2022/01/29 09:45:43;;;;;;;9.75;4.97;;;;;;;1.24;88.00;100572.91;5029940;28;20048;-56
2022/01/29 09:48:09;;;;;;;14.10;4.97;;;;;;;1.26;88.13;100571.25;5027612;28;20044;-58
2022/01/29 09:50:38;;;;;;;10.30;5.10;;;;;;;1.29;87.69;100558.56;5029693;28;20088;-57
2022/01/29 09:53:07;;;;;;;11.13;4.82;;;;;;;1.30;87.94;100551.75;5034372;28;20057;-57
2022/01/29 09:55:34;;;;;;;6.72;4.32;;;;;;;1.30;88.33;100536.44;5032193;28;20053;-57
2022/01/29 09:58:00;;;;;;;10.23;4.38;;;;;;;1.34;88.34;100540.81;5034209;28;20326;-57
2022/01/29 10:00:28;;;;;;;9.77;4.47;;;;;;;1.38;88.20;100540.06;5031301;28;20421;-57
2022/01/29 10:03:15;;;;;;;9.13;5.00;;;;;;;1.36;88.71;100534.03;5029674;28;20603;-57
2022/01/29 10:05:43;;;;;;;6.63;4.20;;;;;;;1.38;88.32;100519.63;5027560;28;20044;-57
2022/01/29 10:08:10;;;;;;;8.02;4.38;;;;;;;1.41;88.69;100520.56;5028417;28;20491;-58
2022/01/29 10:10:41;;;;;;;7.68;3.83;;;;;;;1.42;88.66;100513.75;5033050;28;20057;-58
2022/01/29 10:13:29;;;;;;;6.75;5.40;;;;;;;1.41;88.26;100494.16;5037826;28;20057;-58
2022/01/29 10:16:07;;;;;;;7.45;3.72;;;;;;;1.40;88.49;100482.22;5037675;28;20053;-58
2022/01/29 10:18:35;;;;;;;7.28;4.20;;;;;;;1.40;89.11;100482.22;5038059;28;20048;-57
2022/01/29 10:21:11;;;;;;;6.07;3.97;;;;;;;1.39;89.24;100476.25;5033689;28;20148;-58
2022/01/29 10:23:37;;;;;;;;;;;;;;;1.35;88.91;100473.56;5034756;28;20052;-58
2022/01/29 10:26:04;;;;;;;;;;;;;;;1.39;89.06;100460.06;5029088;28;20364;-57
2022/01/29 10:28:52;;;;;;;6.15;3.38;;;;;;;1.41;89.41;100440.53;5029177;28;20685;-58
2022/01/29 10:31:20;;;;;;;7.78;4.03;;;;;;;1.44;89.25;100443.16;5032559;28;20053;-58
2022/01/29 10:33:47;;;;;;;6.90;3.85;;;;;;;1.43;89.09;100439.72;5038173;28;20036;-58
2022/01/29 10:36:17;;;;;;;5.35;3.65;;;;;;;1.44;89.26;100426.13;5034986;28;20041;-56
2022/01/29 10:38:52;;;;;;;6.32;3.33;;;;;;;1.46;89.13;100421.06;5028891;28;20045;-57
2022/01/29 10:41:22;;;;;;;7.30;3.20;;;;;;;1.44;89.15;100422.72;5032244;28;20391;-58
2022/01/29 10:44:10;;;;;;;6.03;3.17;;;;;;;1.44;89.25;100408.25;5036362;28;20051;-57
2022/01/29 10:46:41;;;;;;;6.47;3.13;;;;;;;1.42;89.69;100394.59;5032723;28;20144;-58
2022/01/29 10:49:08;;;;;;;6.43;3.00;;;;;;;1.40;89.67;100386.03;5033486;28;20056;-58
2022/01/29 10:51:36;;;;;;;5.85;2.67;;;;;;;1.38;90.04;100379.16;5035345;28;20058;-58
2022/01/29 10:54:19;;;;;;;5.57;2.90;;;;;;;1.43;89.67;100365.66;5035890;28;20057;-58
2022/01/29 10:56:55;;;;;;;6.22;3.20;;;;;;;1.45;90.14;100368.25;5032882;28;20056;-56
2022/01/29 10:59:22;;;;;;;3.83;2.45;;;;;;;1.47;89.62;100356.38;5033313;28;20064;-57
2022/01/29 11:01:55;;;;;;;6.22;2.55;;;;;;;1.46;89.49;100354.66;5032371;28;20052;-56
2022/01/29 11:04:25;;;;;;;4.43;2.28;;;;;;;1.48;89.78;100350.44;5033426;28;20048;-57
2022/01/29 11:06:53;;;;;;;4.43;2.53;;;;;;;1.47;89.68;100318.06;5029789;28;20491;-58
2022/01/29 11:09:21;;;;;;;4.93;2.42;;;;;;;1.47;89.66;100311.25;5029384;28;20084;-57
2022/01/29 11:11:48;;;;;;;3.70;1.98;;;;;;;1.48;89.80;100301.91;5029282;28;20053;-56
2022/01/29 11:14:17;;;;;;;4.30;2.60;;;;;;;1.47;90.03;100300.19;5031676;28;20057;-57
2022/01/29 11:16:45;;;;;;;6.25;2.97;;;;;;;1.44;90.33;100285.66;5033601;28;20814;-57
2022/01/29 11:19:15;;;;;;;3.95;2.10;;;;;;;1.44;89.63;100279.69;5035988;28;20049;-57
2022/01/29 11:21:43;;;;;;;4.57;2.20;;;;;;;1.43;90.08;100273.72;5036464;28;20057;-58
2022/01/29 11:24:12;;;;;;;3.97;2.03;;;;;;;1.42;89.64;100271.13;5040036;28;20418;-58
2022/01/29 11:26:40;;;;;;;5.90;2.92;;;;;;;1.45;90.29;100251.63;5030403;28;20038;-58
2022/01/29 11:29:27;;;;;;;4.47;2.50;;;;;;;1.45;89.94;100231.19;5029342;28;20057;-57
2022/01/29 11:32:39;;;;;;;3.25;2.40;;;;;;;1.43;89.88;100219.22;5028757;28;20574;-57
2022/01/29 11:35:10;;;;;;;2.50;1.75;;;;;;;1.40;89.89;100211.50;5012191;28;20059;-57
2022/01/29 11:37:39;;;;;;;4.15;2.25;;;;;;;1.41;90.32;100203.84;5031057;28;20057;-57
2022/01/29 11:40:14;;;;;;;4.28;2.22;;;;;;;1.42;89.79;100195.38;5033773;28;20049;-57
2022/01/29 11:42:53;;;;;;;4.43;2.38;;;;;;;1.45;89.74;100195.41;5031943;28;20041;-57
2022/01/29 11:45:38;;;;;;;4.88;2.38;;;;;;;1.47;89.66;100198.00;5033864;28;20056;-57